sensor_id;sensor_type;location;lat;lon;timestamp;P1;durP1;ratioP1;P2;durP2;ratioP2
75358;SDS011;64046;51.978;5.934;2022-10-31T00:01:40;10.90;;;6.80;;
75358;SDS011;64046;51.978;5.934;2022-10-31T00:04:12;10.93;;;6.85;;
75358;SDS011;64046;51.978;5.934;2022-10-31T00:06:41;11.15;;;6.57;;
75358;SDS011;64046;51.978;5.934;2022-10-31T00:09:10;14.25;;;6.97;;
75358;SDS011;64046;51.978;5.934;2022-10-31T00:11:39;18.30;;;6.85;;
75358;SDS011;64046;51.978;5.934;2022-10-31T00:14:08;15.73;;;7.72;;
75358;SDS011;64046;51.978;5.934;2022-10-31T00:16:38;12.43;;;6.63;;
75358;SDS011;64046;51.978;5.934;2022-10-31T00:19:07;11.90;;;6.38;;
75358;SDS011;64046;51.978;5.934;2022-10-31T00:21:39;16.15;;;7.22;;
75358;SDS011;64046;51.978;5.934;2022-10-31T00:24:08;12.18;;;7.35;;
75358;SDS011;64046;51.978;5.934;2022-10-31T00:26:37;10.55;;;7.13;;
75358;SDS011;64046;51.978;5.934;2022-10-31T00:29:06;12.70;;;6.57;;
75358;SDS011;64046;51.978;5.934;2022-10-31T00:31:36;10.45;;;6.45;;
75358;SDS011;64046;51.978;5.934;2022-10-31T00:34:05;11.10;;;6.55;;
75358;SDS011;64046;51.978;5.934;2022-10-31T00:36:35;14.80;;;7.47;;
75358;SDS011;64046;51.978;5.934;2022-10-31T00:39:07;13.18;;;6.40;;
75358;SDS011;64046;51.978;5.934;2022-10-31T00:41:36;9.55;;;5.93;;
75358;SDS011;64046;51.978;5.934;2022-10-31T00:44:11;9.23;;;5.45;;
75358;SDS011;64046;51.978;5.934;2022-10-31T00:46:40;12.38;;;6.50;;
75358;SDS011;64046;51.978;5.934;2022-10-31T00:49:09;13.65;;;7.38;;
75358;SDS011;64046;51.978;5.934;2022-10-31T00:51:38;11.73;;;6.45;;
75358;SDS011;64046;51.978;5.934;2022-10-31T00:54:10;13.48;;;7.25;;
75358;SDS011;64046;51.978;5.934;2022-10-31T00:56:39;14.73;;;7.43;;
75358;SDS011;64046;51.978;5.934;2022-10-31T00:59:08;15.60;;;6.55;;
75358;SDS011;64046;51.978;5.934;2022-10-31T01:01:37;12.18;;;6.53;;
75358;SDS011;64046;51.978;5.934;2022-10-31T01:04:06;15.48;;;7.30;;
75358;SDS011;64046;51.978;5.934;2022-10-31T01:06:35;13.95;;;6.65;;
75358;SDS011;64046;51.978;5.934;2022-10-31T01:09:04;14.45;;;7.72;;
75358;SDS011;64046;51.978;5.934;2022-10-31T01:11:36;13.20;;;7.35;;
75358;SDS011;64046;51.978;5.934;2022-10-31T01:14:08;18.58;;;8.07;;
75358;SDS011;64046;51.978;5.934;2022-10-31T01:16:37;19.25;;;8.60;;
75358;SDS011;64046;51.978;5.934;2022-10-31T01:19:06;16.23;;;9.07;;
75358;SDS011;64046;51.978;5.934;2022-10-31T01:21:35;12.43;;;6.90;;
75358;SDS011;64046;51.978;5.934;2022-10-31T01:24:05;14.10;;;7.40;;
75358;SDS011;64046;51.978;5.934;2022-10-31T01:26:40;10.48;;;6.45;;
75358;SDS011;64046;51.978;5.934;2022-10-31T01:29:09;10.98;;;6.20;;
75358;SDS011;64046;51.978;5.934;2022-10-31T01:31:38;12.23;;;7.32;;
75358;SDS011;64046;51.978;5.934;2022-10-31T01:34:08;10.73;;;7.03;;
75358;SDS011;64046;51.978;5.934;2022-10-31T01:36:42;9.63;;;6.90;;
75358;SDS011;64046;51.978;5.934;2022-10-31T01:39:17;11.85;;;6.65;;
75358;SDS011;64046;51.978;5.934;2022-10-31T01:41:50;13.13;;;6.65;;
75358;SDS011;64046;51.978;5.934;2022-10-31T01:47:29;14.82;;;7.63;;
75358;SDS011;64046;51.978;5.934;2022-10-31T01:50:03;14.63;;;7.60;;
75358;SDS011;64046;51.978;5.934;2022-10-31T01:52:38;12.90;;;7.28;;
75358;SDS011;64046;51.978;5.934;2022-10-31T01:55:12;10.65;;;6.93;;
75358;SDS011;64046;51.978;5.934;2022-10-31T01:57:48;16.35;;;7.35;;
75358;SDS011;64046;51.978;5.934;2022-10-31T02:00:20;12.73;;;6.30;;
75358;SDS011;64046;51.978;5.934;2022-10-31T02:02:50;15.65;;;6.28;;
75358;SDS011;64046;51.978;5.934;2022-10-31T02:05:22;11.25;;;6.35;;
75358;SDS011;64046;51.978;5.934;2022-10-31T02:07:54;11.35;;;7.03;;
75358;SDS011;64046;51.978;5.934;2022-10-31T02:10:29;10.95;;;6.10;;
75358;SDS011;64046;51.978;5.934;2022-10-31T02:13:03;13.13;;;5.93;;
75358;SDS011;64046;51.978;5.934;2022-10-31T02:15:40;10.52;;;6.63;;
75358;SDS011;64046;51.978;5.934;2022-10-31T02:18:11;11.15;;;5.82;;
75358;SDS011;64046;51.978;5.934;2022-10-31T02:20:46;12.85;;;5.53;;
75358;SDS011;64046;51.978;5.934;2022-10-31T02:26:44;10.68;;;5.82;;
75358;SDS011;64046;51.978;5.934;2022-10-31T02:29:36;12.65;;;6.22;;
75358;SDS011;64046;51.978;5.934;2022-10-31T02:32:27;8.05;;;5.93;;
75358;SDS011;64046;51.978;5.934;2022-10-31T02:35:05;11.60;;;5.88;;
75358;SDS011;64046;51.978;5.934;2022-10-31T02:37:43;9.73;;;5.70;;
75358;SDS011;64046;51.978;5.934;2022-10-31T02:40:21;13.27;;;5.68;;
75358;SDS011;64046;51.978;5.934;2022-10-31T02:43:12;11.80;;;5.68;;
75358;SDS011;64046;51.978;5.934;2022-10-31T02:45:48;9.95;;;4.88;;
75358;SDS011;64046;51.978;5.934;2022-10-31T02:48:26;17.77;;;5.20;;
75358;SDS011;64046;51.978;5.934;2022-10-31T02:50:58;10.93;;;5.88;;
75358;SDS011;64046;51.978;5.934;2022-10-31T02:53:31;10.77;;;5.55;;
75358;SDS011;64046;51.978;5.934;2022-10-31T02:56:01;11.07;;;6.30;;
75358;SDS011;64046;51.978;5.934;2022-10-31T02:58:35;9.98;;;5.95;;
75358;SDS011;64046;51.978;5.934;2022-10-31T03:01:14;9.68;;;6.03;;
75358;SDS011;64046;51.978;5.934;2022-10-31T03:04:17;11.30;;;5.82;;
75358;SDS011;64046;51.978;5.934;2022-10-31T03:06:59;13.82;;;6.70;;
75358;SDS011;64046;51.978;5.934;2022-10-31T03:09:37;15.73;;;7.75;;
75358;SDS011;64046;51.978;5.934;2022-10-31T03:12:11;14.73;;;7.07;;
75358;SDS011;64046;51.978;5.934;2022-10-31T03:14:50;14.48;;;7.28;;
75358;SDS011;64046;51.978;5.934;2022-10-31T03:17:22;13.48;;;6.82;;
75358;SDS011;64046;51.978;5.934;2022-10-31T03:20:02;13.57;;;7.07;;
75358;SDS011;64046;51.978;5.934;2022-10-31T03:22:35;10.52;;;6.30;;
75358;SDS011;64046;51.978;5.934;2022-10-31T03:25:08;16.50;;;7.40;;
75358;SDS011;64046;51.978;5.934;2022-10-31T03:27:38;11.50;;;6.93;;
75358;SDS011;64046;51.978;5.934;2022-10-31T03:30:09;14.63;;;6.28;;
75358;SDS011;64046;51.978;5.934;2022-10-31T03:32:52;11.02;;;6.10;;
75358;SDS011;64046;51.978;5.934;2022-10-31T03:35:27;13.63;;;6.95;;
75358;SDS011;64046;51.978;5.934;2022-10-31T03:37:57;13.07;;;6.30;;
75358;SDS011;64046;51.978;5.934;2022-10-31T03:40:28;14.32;;;6.28;;
75358;SDS011;64046;51.978;5.934;2022-10-31T03:43:02;9.15;;;5.63;;
75358;SDS011;64046;51.978;5.934;2022-10-31T03:45:36;11.52;;;6.13;;
75358;SDS011;64046;51.978;5.934;2022-10-31T03:48:11;11.43;;;6.65;;
75358;SDS011;64046;51.978;5.934;2022-10-31T03:50:45;8.98;;;5.60;;
75358;SDS011;64046;51.978;5.934;2022-10-31T03:53:22;10.45;;;6.13;;
75358;SDS011;64046;51.978;5.934;2022-10-31T03:55:56;10.23;;;6.82;;
75358;SDS011;64046;51.978;5.934;2022-10-31T03:58:32;11.32;;;6.35;;
75358;SDS011;64046;51.978;5.934;2022-10-31T04:01:05;11.23;;;5.95;;
75358;SDS011;64046;51.978;5.934;2022-10-31T04:03:38;13.80;;;5.97;;
75358;SDS011;64046;51.978;5.934;2022-10-31T04:06:14;11.48;;;5.90;;
75358;SDS011;64046;51.978;5.934;2022-10-31T04:08:48;12.70;;;6.32;;
75358;SDS011;64046;51.978;5.934;2022-10-31T04:11:23;12.10;;;7.20;;
75358;SDS011;64046;51.978;5.934;2022-10-31T04:14:28;13.07;;;6.78;;
75358;SDS011;64046;51.978;5.934;2022-10-31T04:16:59;12.27;;;6.50;;
75358;SDS011;64046;51.978;5.934;2022-10-31T04:19:35;11.65;;;7.20;;
75358;SDS011;64046;51.978;5.934;2022-10-31T04:22:06;10.38;;;7.00;;
75358;SDS011;64046;51.978;5.934;2022-10-31T04:24:37;12.43;;;7.75;;
75358;SDS011;64046;51.978;5.934;2022-10-31T04:27:10;9.88;;;6.55;;
75358;SDS011;64046;51.978;5.934;2022-10-31T04:29:39;9.60;;;6.80;;
75358;SDS011;64046;51.978;5.934;2022-10-31T04:32:08;15.30;;;8.32;;
75358;SDS011;64046;51.978;5.934;2022-10-31T04:34:39;14.25;;;8.55;;
75358;SDS011;64046;51.978;5.934;2022-10-31T04:37:11;12.73;;;7.50;;
75358;SDS011;64046;51.978;5.934;2022-10-31T04:39:40;13.18;;;7.35;;
75358;SDS011;64046;51.978;5.934;2022-10-31T04:42:32;13.90;;;8.10;;
75358;SDS011;64046;51.978;5.934;2022-10-31T04:45:03;12.48;;;7.03;;
75358;SDS011;64046;51.978;5.934;2022-10-31T04:47:35;12.85;;;7.65;;
75358;SDS011;64046;51.978;5.934;2022-10-31T04:50:05;11.93;;;7.43;;
75358;SDS011;64046;51.978;5.934;2022-10-31T04:52:41;15.93;;;6.53;;
75358;SDS011;64046;51.978;5.934;2022-10-31T04:55:15;13.32;;;7.00;;
75358;SDS011;64046;51.978;5.934;2022-10-31T04:58:04;14.65;;;7.20;;
75358;SDS011;64046;51.978;5.934;2022-10-31T05:00:33;11.80;;;7.63;;
75358;SDS011;64046;51.978;5.934;2022-10-31T05:03:03;13.77;;;6.50;;
75358;SDS011;64046;51.978;5.934;2022-10-31T05:05:32;12.50;;;7.07;;
75358;SDS011;64046;51.978;5.934;2022-10-31T05:08:05;12.90;;;7.07;;
75358;SDS011;64046;51.978;5.934;2022-10-31T05:10:35;12.75;;;7.22;;
75358;SDS011;64046;51.978;5.934;2022-10-31T05:13:04;15.18;;;7.07;;
75358;SDS011;64046;51.978;5.934;2022-10-31T05:16:09;18.48;;;7.10;;
75358;SDS011;64046;51.978;5.934;2022-10-31T05:19:04;15.18;;;8.35;;
75358;SDS011;64046;51.978;5.934;2022-10-31T05:21:39;11.63;;;7.13;;
75358;SDS011;64046;51.978;5.934;2022-10-31T05:24:12;19.55;;;9.48;;
75358;SDS011;64046;51.978;5.934;2022-10-31T05:26:46;15.68;;;9.32;;
75358;SDS011;64046;51.978;5.934;2022-10-31T05:29:16;15.07;;;9.32;;
75358;SDS011;64046;51.978;5.934;2022-10-31T05:31:45;11.77;;;6.75;;
75358;SDS011;64046;51.978;5.934;2022-10-31T05:34:34;13.18;;;8.77;;
75358;SDS011;64046;51.978;5.934;2022-10-31T05:37:24;13.98;;;8.85;;
75358;SDS011;64046;51.978;5.934;2022-10-31T05:39:56;14.52;;;7.57;;
75358;SDS011;64046;51.978;5.934;2022-10-31T05:42:25;15.88;;;7.57;;
75358;SDS011;64046;51.978;5.934;2022-10-31T05:44:55;16.05;;;8.23;;
75358;SDS011;64046;51.978;5.934;2022-10-31T05:47:33;20.17;;;7.85;;
75358;SDS011;64046;51.978;5.934;2022-10-31T05:50:23;12.32;;;7.38;;
75358;SDS011;64046;51.978;5.934;2022-10-31T05:53:04;11.43;;;7.43;;
75358;SDS011;64046;51.978;5.934;2022-10-31T05:55:39;18.10;;;8.73;;
75358;SDS011;64046;51.978;5.934;2022-10-31T05:58:12;13.23;;;7.70;;
75358;SDS011;64046;51.978;5.934;2022-10-31T06:01:03;11.82;;;7.47;;
75358;SDS011;64046;51.978;5.934;2022-10-31T06:03:32;15.25;;;7.55;;
75358;SDS011;64046;51.978;5.934;2022-10-31T06:06:03;17.48;;;9.52;;
75358;SDS011;64046;51.978;5.934;2022-10-31T06:08:36;14.20;;;8.23;;
75358;SDS011;64046;51.978;5.934;2022-10-31T06:11:14;13.50;;;8.32;;
75358;SDS011;64046;51.978;5.934;2022-10-31T06:14:01;13.73;;;7.80;;
75358;SDS011;64046;51.978;5.934;2022-10-31T06:16:50;15.73;;;8.13;;
75358;SDS011;64046;51.978;5.934;2022-10-31T06:19:39;14.05;;;8.20;;
75358;SDS011;64046;51.978;5.934;2022-10-31T06:22:11;15.68;;;7.60;;
75358;SDS011;64046;51.978;5.934;2022-10-31T06:24:40;14.43;;;9.00;;
75358;SDS011;64046;51.978;5.934;2022-10-31T06:27:31;14.15;;;9.02;;
75358;SDS011;64046;51.978;5.934;2022-10-31T06:30:08;19.95;;;10.77;;
75358;SDS011;64046;51.978;5.934;2022-10-31T06:32:38;16.10;;;10.07;;
75358;SDS011;64046;51.978;5.934;2022-10-31T06:35:08;18.35;;;10.00;;
75358;SDS011;64046;51.978;5.934;2022-10-31T06:37:39;17.20;;;8.93;;
75358;SDS011;64046;51.978;5.934;2022-10-31T06:40:26;17.65;;;8.88;;
75358;SDS011;64046;51.978;5.934;2022-10-31T06:43:16;13.23;;;9.15;;
75358;SDS011;64046;51.978;5.934;2022-10-31T06:45:46;13.52;;;8.73;;
75358;SDS011;64046;51.978;5.934;2022-10-31T06:48:29;16.27;;;8.85;;
75358;SDS011;64046;51.978;5.934;2022-10-31T06:51:16;20.98;;;9.40;;
75358;SDS011;64046;51.978;5.934;2022-10-31T06:53:45;18.00;;;10.82;;
75358;SDS011;64046;51.978;5.934;2022-10-31T06:56:16;21.73;;;11.30;;
75358;SDS011;64046;51.978;5.934;2022-10-31T06:58:51;27.40;;;11.18;;
75358;SDS011;64046;51.978;5.934;2022-10-31T07:01:37;16.25;;;9.55;;
75358;SDS011;64046;51.978;5.934;2022-10-31T07:04:07;19.75;;;10.40;;
75358;SDS011;64046;51.978;5.934;2022-10-31T07:06:36;20.63;;;10.32;;
75358;SDS011;64046;51.978;5.934;2022-10-31T07:09:07;15.23;;;8.93;;
75358;SDS011;64046;51.978;5.934;2022-10-31T07:11:36;19.10;;;11.60;;
75358;SDS011;64046;51.978;5.934;2022-10-31T07:14:08;18.90;;;10.05;;
75358;SDS011;64046;51.978;5.934;2022-10-31T07:16:38;15.57;;;10.07;;
75358;SDS011;64046;51.978;5.934;2022-10-31T07:19:07;15.57;;;10.50;;
75358;SDS011;64046;51.978;5.934;2022-10-31T07:21:36;14.02;;;9.60;;
75358;SDS011;64046;51.978;5.934;2022-10-31T07:24:06;17.70;;;11.23;;
75358;SDS011;64046;51.978;5.934;2022-10-31T07:27:11;15.45;;;9.80;;
75358;SDS011;64046;51.978;5.934;2022-10-31T07:29:45;18.13;;;9.98;;
75358;SDS011;64046;51.978;5.934;2022-10-31T07:32:16;14.90;;;9.35;;
75358;SDS011;64046;51.978;5.934;2022-10-31T07:34:51;22.60;;;11.52;;
75358;SDS011;64046;51.978;5.934;2022-10-31T07:37:22;18.88;;;10.13;;
75358;SDS011;64046;51.978;5.934;2022-10-31T07:39:57;35.78;;;12.55;;
75358;SDS011;64046;51.978;5.934;2022-10-31T07:42:26;33.85;;;10.90;;
75358;SDS011;64046;51.978;5.934;2022-10-31T07:44:58;77.00;;;16.55;;
75358;SDS011;64046;51.978;5.934;2022-10-31T07:47:46;33.15;;;10.73;;
75358;SDS011;64046;51.978;5.934;2022-10-31T07:50:39;30.15;;;11.48;;
75358;SDS011;64046;51.978;5.934;2022-10-31T07:53:31;29.35;;;11.27;;
75358;SDS011;64046;51.978;5.934;2022-10-31T07:56:11;26.80;;;11.10;;
75358;SDS011;64046;51.978;5.934;2022-10-31T07:58:40;36.53;;;12.70;;
75358;SDS011;64046;51.978;5.934;2022-10-31T08:01:12;22.33;;;12.27;;
75358;SDS011;64046;51.978;5.934;2022-10-31T08:03:48;41.65;;;14.55;;
75358;SDS011;64046;51.978;5.934;2022-10-31T08:06:35;17.80;;;10.93;;
75358;SDS011;64046;51.978;5.934;2022-10-31T08:09:28;24.38;;;13.00;;
75358;SDS011;64046;51.978;5.934;2022-10-31T08:12:01;21.42;;;11.50;;
75358;SDS011;64046;51.978;5.934;2022-10-31T08:14:32;21.23;;;11.70;;
75358;SDS011;64046;51.978;5.934;2022-10-31T08:17:04;22.88;;;12.57;;
75358;SDS011;64046;51.978;5.934;2022-10-31T08:19:41;22.08;;;12.68;;
75358;SDS011;64046;51.978;5.934;2022-10-31T08:22:13;22.20;;;11.73;;
75358;SDS011;64046;51.978;5.934;2022-10-31T08:24:43;30.05;;;14.93;;
75358;SDS011;64046;51.978;5.934;2022-10-31T08:27:12;23.10;;;14.50;;
75358;SDS011;64046;51.978;5.934;2022-10-31T08:29:42;21.42;;;12.85;;
75358;SDS011;64046;51.978;5.934;2022-10-31T08:32:14;25.52;;;12.15;;
75358;SDS011;64046;51.978;5.934;2022-10-31T08:34:56;16.25;;;10.80;;
75358;SDS011;64046;51.978;5.934;2022-10-31T08:37:51;19.83;;;10.52;;
75358;SDS011;64046;51.978;5.934;2022-10-31T08:40:25;19.90;;;11.60;;
75358;SDS011;64046;51.978;5.934;2022-10-31T08:42:56;17.00;;;10.40;;
75358;SDS011;64046;51.978;5.934;2022-10-31T08:45:26;19.77;;;12.25;;
75358;SDS011;64046;51.978;5.934;2022-10-31T08:47:59;15.40;;;10.35;;
75358;SDS011;64046;51.978;5.934;2022-10-31T08:50:30;21.08;;;12.27;;
75358;SDS011;64046;51.978;5.934;2022-10-31T08:53:01;16.25;;;10.50;;
75358;SDS011;64046;51.978;5.934;2022-10-31T08:55:32;17.80;;;11.60;;
75358;SDS011;64046;51.978;5.934;2022-10-31T08:58:08;18.08;;;10.93;;
75358;SDS011;64046;51.978;5.934;2022-10-31T09:00:48;21.08;;;12.45;;
75358;SDS011;64046;51.978;5.934;2022-10-31T09:03:23;15.32;;;10.93;;
75358;SDS011;64046;51.978;5.934;2022-10-31T09:05:54;13.60;;;10.25;;
75358;SDS011;64046;51.978;5.934;2022-10-31T09:08:28;18.63;;;11.15;;
75358;SDS011;64046;51.978;5.934;2022-10-31T09:11:00;14.45;;;9.88;;
75358;SDS011;64046;51.978;5.934;2022-10-31T09:13:47;14.50;;;10.13;;
75358;SDS011;64046;51.978;5.934;2022-10-31T09:16:35;15.50;;;9.48;;
75358;SDS011;64046;51.978;5.934;2022-10-31T09:19:10;16.15;;;10.23;;
75358;SDS011;64046;51.978;5.934;2022-10-31T09:21:44;16.58;;;10.02;;
75358;SDS011;64046;51.978;5.934;2022-10-31T09:24:13;16.45;;;9.10;;
75358;SDS011;64046;51.978;5.934;2022-10-31T09:26:42;17.60;;;10.48;;
75358;SDS011;64046;51.978;5.934;2022-10-31T09:29:23;20.48;;;11.18;;
75358;SDS011;64046;51.978;5.934;2022-10-31T09:31:57;19.83;;;9.90;;
75358;SDS011;64046;51.978;5.934;2022-10-31T09:34:35;20.52;;;9.98;;
75358;SDS011;64046;51.978;5.934;2022-10-31T09:37:06;15.93;;;10.93;;
75358;SDS011;64046;51.978;5.934;2022-10-31T09:39:35;21.50;;;10.85;;
75358;SDS011;64046;51.978;5.934;2022-10-31T09:42:19;16.85;;;11.50;;
75358;SDS011;64046;51.978;5.934;2022-10-31T09:45:05;18.77;;;9.43;;
75358;SDS011;64046;51.978;5.934;2022-10-31T09:47:43;20.25;;;10.88;;
75358;SDS011;64046;51.978;5.934;2022-10-31T09:50:33;15.93;;;11.10;;
75358;SDS011;64046;51.978;5.934;2022-10-31T09:53:26;24.08;;;12.73;;
75358;SDS011;64046;51.978;5.934;2022-10-31T09:56:01;21.27;;;12.05;;
75358;SDS011;64046;51.978;5.934;2022-10-31T09:58:34;18.02;;;12.00;;
75358;SDS011;64046;51.978;5.934;2022-10-31T10:01:11;21.60;;;12.15;;
75358;SDS011;64046;51.978;5.934;2022-10-31T10:04:00;21.85;;;12.40;;
75358;SDS011;64046;51.978;5.934;2022-10-31T10:07:06;20.65;;;11.75;;
75358;SDS011;64046;51.978;5.934;2022-10-31T10:09:42;22.55;;;11.57;;
75358;SDS011;64046;51.978;5.934;2022-10-31T10:12:40;21.50;;;12.35;;
75358;SDS011;64046;51.978;5.934;2022-10-31T10:15:26;22.48;;;13.23;;
75358;SDS011;64046;51.978;5.934;2022-10-31T10:18:16;23.48;;;12.27;;
75358;SDS011;64046;51.978;5.934;2022-10-31T10:20:57;20.45;;;12.73;;
75358;SDS011;64046;51.978;5.934;2022-10-31T10:23:39;26.05;;;14.73;;
75358;SDS011;64046;51.978;5.934;2022-10-31T10:26:17;23.20;;;13.88;;
75358;SDS011;64046;51.978;5.934;2022-10-31T10:28:48;21.65;;;12.70;;
75358;SDS011;64046;51.978;5.934;2022-10-31T10:31:23;22.25;;;13.18;;
75358;SDS011;64046;51.978;5.934;2022-10-31T10:33:59;22.70;;;13.05;;
75358;SDS011;64046;51.978;5.934;2022-10-31T10:36:36;26.15;;;13.60;;
75358;SDS011;64046;51.978;5.934;2022-10-31T10:39:11;25.20;;;14.48;;
75358;SDS011;64046;51.978;5.934;2022-10-31T10:41:47;22.42;;;12.32;;
75358;SDS011;64046;51.978;5.934;2022-10-31T10:44:29;24.50;;;12.25;;
75358;SDS011;64046;51.978;5.934;2022-10-31T10:47:11;22.48;;;11.05;;
75358;SDS011;64046;51.978;5.934;2022-10-31T10:49:53;21.95;;;11.90;;
75358;SDS011;64046;51.978;5.934;2022-10-31T10:52:25;25.30;;;11.55;;
75358;SDS011;64046;51.978;5.934;2022-10-31T10:55:05;19.88;;;11.05;;
75358;SDS011;64046;51.978;5.934;2022-10-31T10:57:47;20.60;;;11.55;;
75358;SDS011;64046;51.978;5.934;2022-10-31T11:00:25;26.10;;;13.88;;
75358;SDS011;64046;51.978;5.934;2022-10-31T11:02:55;27.02;;;13.80;;
75358;SDS011;64046;51.978;5.934;2022-10-31T11:05:26;22.90;;;14.30;;
75358;SDS011;64046;51.978;5.934;2022-10-31T11:08:01;22.30;;;13.45;;
75358;SDS011;64046;51.978;5.934;2022-10-31T11:10:33;27.10;;;13.45;;
75358;SDS011;64046;51.978;5.934;2022-10-31T11:13:05;21.65;;;12.80;;
75358;SDS011;64046;51.978;5.934;2022-10-31T11:15:51;31.05;;;15.57;;
75358;SDS011;64046;51.978;5.934;2022-10-31T11:18:25;27.58;;;13.90;;
75358;SDS011;64046;51.978;5.934;2022-10-31T11:20:56;24.02;;;13.52;;
75358;SDS011;64046;51.978;5.934;2022-10-31T11:23:28;25.92;;;14.75;;
75358;SDS011;64046;51.978;5.934;2022-10-31T11:26:01;28.23;;;15.90;;
75358;SDS011;64046;51.978;5.934;2022-10-31T11:28:32;26.58;;;15.35;;
75358;SDS011;64046;51.978;5.934;2022-10-31T11:31:05;22.38;;;14.38;;
75358;SDS011;64046;51.978;5.934;2022-10-31T11:33:37;27.92;;;16.02;;
75358;SDS011;64046;51.978;5.934;2022-10-31T11:36:14;28.63;;;15.90;;
75358;SDS011;64046;51.978;5.934;2022-10-31T11:38:47;25.17;;;13.80;;
75358;SDS011;64046;51.978;5.934;2022-10-31T11:41:23;23.30;;;14.40;;
75358;SDS011;64046;51.978;5.934;2022-10-31T11:43:55;26.00;;;13.50;;
75358;SDS011;64046;51.978;5.934;2022-10-31T11:46:28;27.17;;;15.65;;
75358;SDS011;64046;51.978;5.934;2022-10-31T11:49:02;27.20;;;15.15;;
75358;SDS011;64046;51.978;5.934;2022-10-31T11:51:34;30.25;;;16.15;;
75358;SDS011;64046;51.978;5.934;2022-10-31T11:54:03;30.50;;;15.75;;
75358;SDS011;64046;51.978;5.934;2022-10-31T11:56:39;30.83;;;15.27;;
75358;SDS011;64046;51.978;5.934;2022-10-31T11:59:22;27.15;;;15.00;;
75358;SDS011;64046;51.978;5.934;2022-10-31T12:01:56;28.15;;;14.60;;
75358;SDS011;64046;51.978;5.934;2022-10-31T12:04:31;24.20;;;15.00;;
75358;SDS011;64046;51.978;5.934;2022-10-31T12:07:05;24.52;;;14.88;;
75358;SDS011;64046;51.978;5.934;2022-10-31T12:09:35;33.58;;;18.23;;
75358;SDS011;64046;51.978;5.934;2022-10-31T12:12:14;34.53;;;16.88;;
75358;SDS011;64046;51.978;5.934;2022-10-31T12:14:55;29.83;;;16.00;;
75358;SDS011;64046;51.978;5.934;2022-10-31T12:17:34;30.42;;;15.55;;
75358;SDS011;64046;51.978;5.934;2022-10-31T12:20:10;27.35;;;15.65;;
75358;SDS011;64046;51.978;5.934;2022-10-31T12:22:51;32.47;;;15.65;;
75358;SDS011;64046;51.978;5.934;2022-10-31T12:25:33;30.92;;;16.98;;
75358;SDS011;64046;51.978;5.934;2022-10-31T12:28:15;28.35;;;17.90;;
75358;SDS011;64046;51.978;5.934;2022-10-31T12:31:05;27.83;;;14.02;;
75358;SDS011;64046;51.978;5.934;2022-10-31T12:33:47;21.90;;;14.52;;
75358;SDS011;64046;51.978;5.934;2022-10-31T12:36:33;37.25;;;15.60;;
75358;SDS011;64046;51.978;5.934;2022-10-31T12:39:19;27.67;;;16.35;;
75358;SDS011;64046;51.978;5.934;2022-10-31T12:41:55;28.45;;;16.98;;
75358;SDS011;64046;51.978;5.934;2022-10-31T12:47:35;41.15;;;19.15;;
75358;SDS011;64046;51.978;5.934;2022-10-31T12:50:18;33.00;;;17.17;;
75358;SDS011;64046;51.978;5.934;2022-10-31T12:52:57;34.58;;;18.40;;
75358;SDS011;64046;51.978;5.934;2022-10-31T12:55:38;31.42;;;17.90;;
75358;SDS011;64046;51.978;5.934;2022-10-31T12:58:20;32.80;;;18.90;;
75358;SDS011;64046;51.978;5.934;2022-10-31T13:00:58;33.67;;;18.33;;
75358;SDS011;64046;51.978;5.934;2022-10-31T13:03:38;30.80;;;16.88;;
75358;SDS011;64046;51.978;5.934;2022-10-31T13:06:12;33.45;;;17.75;;
75358;SDS011;64046;51.978;5.934;2022-10-31T13:08:47;33.30;;;16.85;;
75358;SDS011;64046;51.978;5.934;2022-10-31T13:11:20;32.65;;;17.33;;
75358;SDS011;64046;51.978;5.934;2022-10-31T13:13:55;43.90;;;22.48;;
75358;SDS011;64046;51.978;5.934;2022-10-31T13:16:33;36.35;;;17.98;;
75358;SDS011;64046;51.978;5.934;2022-10-31T13:19:07;39.35;;;19.92;;
75358;SDS011;64046;51.978;5.934;2022-10-31T13:21:44;28.27;;;16.65;;
75358;SDS011;64046;51.978;5.934;2022-10-31T13:24:23;28.55;;;15.95;;
75358;SDS011;64046;51.978;5.934;2022-10-31T13:26:59;28.55;;;16.42;;
75358;SDS011;64046;51.978;5.934;2022-10-31T13:29:32;27.92;;;17.10;;
75358;SDS011;64046;51.978;5.934;2022-10-31T13:32:07;31.67;;;17.02;;
75358;SDS011;64046;51.978;5.934;2022-10-31T13:34:38;33.97;;;17.05;;
75358;SDS011;64046;51.978;5.934;2022-10-31T13:37:12;35.15;;;15.88;;
75358;SDS011;64046;51.978;5.934;2022-10-31T13:39:50;31.17;;;17.00;;
75358;SDS011;64046;51.978;5.934;2022-10-31T13:42:37;30.25;;;15.93;;
75358;SDS011;64046;51.978;5.934;2022-10-31T13:45:16;28.85;;;16.65;;
75358;SDS011;64046;51.978;5.934;2022-10-31T13:47:57;31.75;;;17.02;;
75358;SDS011;64046;51.978;5.934;2022-10-31T13:50:28;36.33;;;17.08;;
75358;SDS011;64046;51.978;5.934;2022-10-31T13:53:11;33.15;;;15.57;;
75358;SDS011;64046;51.978;5.934;2022-10-31T13:55:42;39.10;;;17.75;;
75358;SDS011;64046;51.978;5.934;2022-10-31T13:58:22;29.92;;;16.35;;
75358;SDS011;64046;51.978;5.934;2022-10-31T14:01:02;31.58;;;15.93;;
75358;SDS011;64046;51.978;5.934;2022-10-31T14:03:44;33.22;;;15.65;;
75358;SDS011;64046;51.978;5.934;2022-10-31T14:06:15;29.00;;;17.08;;
75358;SDS011;64046;51.978;5.934;2022-10-31T14:08:47;32.67;;;15.80;;
75358;SDS011;64046;51.978;5.934;2022-10-31T14:11:20;29.73;;;15.00;;
75358;SDS011;64046;51.978;5.934;2022-10-31T14:13:54;29.15;;;16.60;;
75358;SDS011;64046;51.978;5.934;2022-10-31T14:16:26;31.83;;;15.40;;
75358;SDS011;64046;51.978;5.934;2022-10-31T14:19:01;33.42;;;16.63;;
75358;SDS011;64046;51.978;5.934;2022-10-31T14:21:36;35.17;;;18.30;;
75358;SDS011;64046;51.978;5.934;2022-10-31T14:24:13;33.88;;;17.20;;
75358;SDS011;64046;51.978;5.934;2022-10-31T14:26:53;32.78;;;15.43;;
75358;SDS011;64046;51.978;5.934;2022-10-31T14:29:24;30.65;;;15.30;;
75358;SDS011;64046;51.978;5.934;2022-10-31T14:31:56;27.52;;;14.93;;
75358;SDS011;64046;51.978;5.934;2022-10-31T14:34:36;31.92;;;15.15;;
75358;SDS011;64046;51.978;5.934;2022-10-31T14:40:18;28.02;;;14.38;;
75358;SDS011;64046;51.978;5.934;2022-10-31T14:45:53;28.20;;;14.27;;
75358;SDS011;64046;51.978;5.934;2022-10-31T14:48:32;32.10;;;15.63;;
75358;SDS011;64046;51.978;5.934;2022-10-31T14:51:13;27.83;;;15.05;;
75358;SDS011;64046;51.978;5.934;2022-10-31T14:53:47;30.05;;;14.48;;
75358;SDS011;64046;51.978;5.934;2022-10-31T14:56:19;32.50;;;14.77;;
75358;SDS011;64046;51.978;5.934;2022-10-31T14:58:52;28.75;;;16.15;;
75358;SDS011;64046;51.978;5.934;2022-10-31T15:01:24;37.97;;;18.92;;
75358;SDS011;64046;51.978;5.934;2022-10-31T15:03:57;26.38;;;15.05;;
75358;SDS011;64046;51.978;5.934;2022-10-31T15:06:38;25.67;;;14.68;;
75358;SDS011;64046;51.978;5.934;2022-10-31T15:09:20;27.65;;;15.00;;
75358;SDS011;64046;51.978;5.934;2022-10-31T15:11:51;31.92;;;15.02;;
75358;SDS011;64046;51.978;5.934;2022-10-31T15:14:23;24.52;;;13.90;;
75358;SDS011;64046;51.978;5.934;2022-10-31T15:16:55;31.35;;;14.13;;
75358;SDS011;64046;51.978;5.934;2022-10-31T15:19:27;35.22;;;16.15;;
75358;SDS011;64046;51.978;5.934;2022-10-31T15:22:01;27.98;;;16.02;;
75358;SDS011;64046;51.978;5.934;2022-10-31T15:24:32;28.75;;;14.55;;
75358;SDS011;64046;51.978;5.934;2022-10-31T15:27:05;30.33;;;15.35;;
75358;SDS011;64046;51.978;5.934;2022-10-31T15:29:47;27.48;;;13.98;;
75358;SDS011;64046;51.978;5.934;2022-10-31T15:32:18;30.35;;;15.23;;
75358;SDS011;64046;51.978;5.934;2022-10-31T15:34:49;30.65;;;15.48;;